Terminal Aerodrome Forecast
Issued by NWS

Home | Current Version | Previous Version | Text Only | Print | Product List | Glossary On
Versions: 1 2 3 4 5 6 7 8 9 10 11 12 13 14
474
FTUS45 KREV 220047 AAA
TAFMMH
TAF AMD
KMMH 220047Z 2201/2224 30012G20KT P6SM VCSH BKN040 BKN060
      TEMPO 2202/2205 5SM -SHSN BKN020 OVC035
     FM220600 27008KT P6SM SCT050 BKN100
     FM222100 33009KT P6SM VCSH SCT060 BKN100=

USA.gov is the U.S. government's official web portal to all federal, state and local government web resources and services.